sensor_id;sensor_type;location;lat;lon;timestamp;P1;durP1;ratioP1;P2;durP2;ratioP2
50681;SDS011;36779;52.168;20.878;2023-03-12T00:00:04;17.30;;;6.10;;
50681;SDS011;36779;52.168;20.878;2023-03-12T00:02:58;13.10;;;5.80;;
50681;SDS011;36779;52.168;20.878;2023-03-12T00:05:30;10.60;;;3.60;;
50681;SDS011;36779;52.168;20.878;2023-03-12T00:07:59;18.30;;;7.00;;
50681;SDS011;36779;52.168;20.878;2023-03-12T00:10:29;20.50;;;8.00;;
50681;SDS011;36779;52.168;20.878;2023-03-12T00:12:58;18.80;;;7.60;;
50681;SDS011;36779;52.168;20.878;2023-03-12T00:15:31;14.80;;;6.70;;
50681;SDS011;36779;52.168;20.878;2023-03-12T00:18:02;18.40;;;6.20;;
50681;SDS011;36779;52.168;20.878;2023-03-12T00:20:31;13.00;;;5.60;;
50681;SDS011;36779;52.168;20.878;2023-03-12T00:23:04;15.10;;;5.40;;
50681;SDS011;36779;52.168;20.878;2023-03-12T00:25:33;11.80;;;4.60;;
50681;SDS011;36779;52.168;20.878;2023-03-12T00:28:03;13.00;;;5.50;;
50681;SDS011;36779;52.168;20.878;2023-03-12T00:30:34;12.90;;;5.20;;
50681;SDS011;36779;52.168;20.878;2023-03-12T00:33:04;11.80;;;5.50;;
50681;SDS011;36779;52.168;20.878;2023-03-12T00:35:33;15.60;;;5.10;;
50681;SDS011;36779;52.168;20.878;2023-03-12T00:38:02;14.60;;;5.60;;
50681;SDS011;36779;52.168;20.878;2023-03-12T00:40:31;14.40;;;6.10;;
50681;SDS011;36779;52.168;20.878;2023-03-12T00:43:05;15.60;;;6.70;;
50681;SDS011;36779;52.168;20.878;2023-03-12T00:45:34;15.20;;;6.40;;
50681;SDS011;36779;52.168;20.878;2023-03-12T00:48:04;14.60;;;6.50;;
50681;SDS011;36779;52.168;20.878;2023-03-12T00:50:33;18.00;;;6.10;;
50681;SDS011;36779;52.168;20.878;2023-03-12T00:53:02;13.50;;;5.60;;
50681;SDS011;36779;52.168;20.878;2023-03-12T00:55:38;17.30;;;6.70;;
50681;SDS011;36779;52.168;20.878;2023-03-12T00:58:07;12.00;;;5.70;;
50681;SDS011;36779;52.168;20.878;2023-03-12T01:00:37;15.10;;;6.50;;
50681;SDS011;36779;52.168;20.878;2023-03-12T01:03:06;11.30;;;5.40;;
50681;SDS011;36779;52.168;20.878;2023-03-12T01:05:35;13.50;;;5.70;;
50681;SDS011;36779;52.168;20.878;2023-03-12T01:08:07;15.60;;;5.60;;
50681;SDS011;36779;52.168;20.878;2023-03-12T01:10:39;17.00;;;7.10;;
50681;SDS011;36779;52.168;20.878;2023-03-12T01:13:09;14.30;;;5.80;;
50681;SDS011;36779;52.168;20.878;2023-03-12T01:15:38;18.10;;;6.70;;
50681;SDS011;36779;52.168;20.878;2023-03-12T01:18:07;19.10;;;6.10;;
50681;SDS011;36779;52.168;20.878;2023-03-12T01:20:37;14.90;;;5.60;;
50681;SDS011;36779;52.168;20.878;2023-03-12T01:23:07;14.50;;;6.10;;
50681;SDS011;36779;52.168;20.878;2023-03-12T01:25:37;11.50;;;4.70;;
50681;SDS011;36779;52.168;20.878;2023-03-12T01:28:09;11.10;;;4.80;;
50681;SDS011;36779;52.168;20.878;2023-03-12T01:30:38;12.30;;;5.10;;
50681;SDS011;36779;52.168;20.878;2023-03-12T01:33:08;17.70;;;5.90;;
50681;SDS011;36779;52.168;20.878;2023-03-12T01:35:37;12.70;;;6.00;;
50681;SDS011;36779;52.168;20.878;2023-03-12T01:38:10;11.90;;;5.40;;
50681;SDS011;36779;52.168;20.878;2023-03-12T01:40:43;11.00;;;4.90;;
50681;SDS011;36779;52.168;20.878;2023-03-12T01:43:22;12.00;;;5.70;;
50681;SDS011;36779;52.168;20.878;2023-03-12T01:49:03;15.20;;;6.10;;
50681;SDS011;36779;52.168;20.878;2023-03-12T01:51:36;16.20;;;6.10;;
50681;SDS011;36779;52.168;20.878;2023-03-12T01:54:13;15.00;;;5.90;;
50681;SDS011;36779;52.168;20.878;2023-03-12T01:56:46;17.80;;;6.50;;
50681;SDS011;36779;52.168;20.878;2023-03-12T01:59:22;12.30;;;5.70;;
50681;SDS011;36779;52.168;20.878;2023-03-12T02:01:55;10.10;;;4.70;;
50681;SDS011;36779;52.168;20.878;2023-03-12T02:04:25;14.90;;;5.60;;
50681;SDS011;36779;52.168;20.878;2023-03-12T02:07:03;15.20;;;4.80;;
50681;SDS011;36779;52.168;20.878;2023-03-12T02:09:35;12.10;;;4.70;;
50681;SDS011;36779;52.168;20.878;2023-03-12T02:12:08;18.40;;;5.60;;
50681;SDS011;36779;52.168;20.878;2023-03-12T02:14:37;12.60;;;4.00;;
50681;SDS011;36779;52.168;20.878;2023-03-12T02:17:07;10.70;;;4.10;;
50681;SDS011;36779;52.168;20.878;2023-03-12T02:19:40;10.90;;;4.10;;
50681;SDS011;36779;52.168;20.878;2023-03-12T02:22:18;15.10;;;5.00;;
50681;SDS011;36779;52.168;20.878;2023-03-12T02:24:49;13.80;;;4.90;;
50681;SDS011;36779;52.168;20.878;2023-03-12T02:27:23;10.10;;;4.30;;
50681;SDS011;36779;52.168;20.878;2023-03-12T02:29:52;16.90;;;5.70;;
50681;SDS011;36779;52.168;20.878;2023-03-12T02:32:22;12.10;;;5.20;;
50681;SDS011;36779;52.168;20.878;2023-03-12T02:34:58;13.80;;;4.60;;
50681;SDS011;36779;52.168;20.878;2023-03-12T02:37:28;12.60;;;5.20;;
50681;SDS011;36779;52.168;20.878;2023-03-12T02:40:01;10.30;;;4.10;;
50681;SDS011;36779;52.168;20.878;2023-03-12T02:42:37;12.30;;;4.40;;
50681;SDS011;36779;52.168;20.878;2023-03-12T02:45:11;10.90;;;3.90;;
50681;SDS011;36779;52.168;20.878;2023-03-12T02:47:39;11.80;;;4.00;;
50681;SDS011;36779;52.168;20.878;2023-03-12T02:50:09;7.60;;;3.30;;
50681;SDS011;36779;52.168;20.878;2023-03-12T02:52:38;9.00;;;3.00;;
50681;SDS011;36779;52.168;20.878;2023-03-12T02:55:08;9.10;;;3.30;;
50681;SDS011;36779;52.168;20.878;2023-03-12T02:57:37;9.60;;;4.30;;
50681;SDS011;36779;52.168;20.878;2023-03-12T03:00:13;12.50;;;4.60;;
50681;SDS011;36779;52.168;20.878;2023-03-12T03:02:47;12.10;;;4.20;;
50681;SDS011;36779;52.168;20.878;2023-03-12T03:05:16;10.00;;;4.00;;
50681;SDS011;36779;52.168;20.878;2023-03-12T03:07:49;18.50;;;4.60;;
50681;SDS011;36779;52.168;20.878;2023-03-12T03:10:19;8.40;;;4.30;;
50681;SDS011;36779;52.168;20.878;2023-03-12T03:12:50;8.70;;;3.90;;
50681;SDS011;36779;52.168;20.878;2023-03-12T03:15:19;11.20;;;3.40;;
50681;SDS011;36779;52.168;20.878;2023-03-12T03:17:53;8.90;;;3.70;;
50681;SDS011;36779;52.168;20.878;2023-03-12T03:20:23;10.10;;;4.00;;
50681;SDS011;36779;52.168;20.878;2023-03-12T03:22:56;7.80;;;3.70;;
50681;SDS011;36779;52.168;20.878;2023-03-12T03:25:24;10.00;;;4.00;;
50681;SDS011;36779;52.168;20.878;2023-03-12T03:27:53;9.70;;;3.70;;
50681;SDS011;36779;52.168;20.878;2023-03-12T03:30:22;9.80;;;4.00;;
50681;SDS011;36779;52.168;20.878;2023-03-12T03:32:55;8.50;;;2.80;;
50681;SDS011;36779;52.168;20.878;2023-03-12T03:35:23;8.60;;;3.60;;
50681;SDS011;36779;52.168;20.878;2023-03-12T03:37:52;10.40;;;4.10;;
50681;SDS011;36779;52.168;20.878;2023-03-12T03:40:24;12.40;;;4.20;;
50681;SDS011;36779;52.168;20.878;2023-03-12T03:42:53;10.20;;;2.60;;
50681;SDS011;36779;52.168;20.878;2023-03-12T03:45:22;10.70;;;4.10;;
50681;SDS011;36779;52.168;20.878;2023-03-12T03:47:53;9.30;;;3.10;;
50681;SDS011;36779;52.168;20.878;2023-03-12T03:50:23;10.10;;;4.40;;
50681;SDS011;36779;52.168;20.878;2023-03-12T03:52:52;9.90;;;4.40;;
50681;SDS011;36779;52.168;20.878;2023-03-12T03:55:22;8.80;;;4.00;;
50681;SDS011;36779;52.168;20.878;2023-03-12T03:57:51;8.60;;;4.10;;
50681;SDS011;36779;52.168;20.878;2023-03-12T04:00:21;10.80;;;4.80;;
50681;SDS011;36779;52.168;20.878;2023-03-12T04:02:51;11.50;;;4.10;;
50681;SDS011;36779;52.168;20.878;2023-03-12T04:05:21;8.90;;;4.20;;
50681;SDS011;36779;52.168;20.878;2023-03-12T04:07:54;8.70;;;4.00;;
50681;SDS011;36779;52.168;20.878;2023-03-12T04:10:30;9.00;;;4.20;;
50681;SDS011;36779;52.168;20.878;2023-03-12T04:12:59;7.80;;;3.20;;
50681;SDS011;36779;52.168;20.878;2023-03-12T04:15:33;9.70;;;4.30;;
50681;SDS011;36779;52.168;20.878;2023-03-12T04:18:03;10.90;;;4.30;;
50681;SDS011;36779;52.168;20.878;2023-03-12T04:20:32;11.10;;;3.50;;
50681;SDS011;36779;52.168;20.878;2023-03-12T04:23:04;9.50;;;3.60;;
50681;SDS011;36779;52.168;20.878;2023-03-12T04:25:33;10.00;;;4.20;;
50681;SDS011;36779;52.168;20.878;2023-03-12T04:28:03;8.50;;;4.10;;
50681;SDS011;36779;52.168;20.878;2023-03-12T04:30:38;11.90;;;4.80;;
50681;SDS011;36779;52.168;20.878;2023-03-12T04:33:07;8.40;;;3.80;;
50681;SDS011;36779;52.168;20.878;2023-03-12T04:35:39;9.60;;;4.10;;
50681;SDS011;36779;52.168;20.878;2023-03-12T04:38:13;8.90;;;4.50;;
50681;SDS011;36779;52.168;20.878;2023-03-12T04:40:42;10.80;;;3.80;;
50681;SDS011;36779;52.168;20.878;2023-03-12T04:43:16;3.80;;;2.60;;
50681;SDS011;36779;52.168;20.878;2023-03-12T04:45:47;8.20;;;3.80;;
50681;SDS011;36779;52.168;20.878;2023-03-12T04:48:17;8.10;;;3.30;;
50681;SDS011;36779;52.168;20.878;2023-03-12T04:50:48;9.20;;;3.40;;
50681;SDS011;36779;52.168;20.878;2023-03-12T04:53:19;7.30;;;3.50;;
50681;SDS011;36779;52.168;20.878;2023-03-12T04:55:49;6.40;;;3.30;;
50681;SDS011;36779;52.168;20.878;2023-03-12T04:58:21;10.10;;;4.00;;
50681;SDS011;36779;52.168;20.878;2023-03-12T05:00:51;10.20;;;3.60;;
50681;SDS011;36779;52.168;20.878;2023-03-12T05:03:23;6.70;;;3.40;;
50681;SDS011;36779;52.168;20.878;2023-03-12T05:05:54;12.50;;;3.90;;
50681;SDS011;36779;52.168;20.878;2023-03-12T05:08:24;8.60;;;3.70;;
50681;SDS011;36779;52.168;20.878;2023-03-12T05:10:56;8.00;;;3.80;;
50681;SDS011;36779;52.168;20.878;2023-03-12T05:13:33;7.40;;;3.60;;
50681;SDS011;36779;52.168;20.878;2023-03-12T05:16:09;9.70;;;3.60;;
50681;SDS011;36779;52.168;20.878;2023-03-12T05:18:40;8.70;;;3.40;;
50681;SDS011;36779;52.168;20.878;2023-03-12T05:21:11;9.00;;;4.10;;
50681;SDS011;36779;52.168;20.878;2023-03-12T05:23:43;4.60;;;2.90;;
50681;SDS011;36779;52.168;20.878;2023-03-12T05:26:18;6.30;;;3.30;;
50681;SDS011;36779;52.168;20.878;2023-03-12T05:28:49;5.30;;;2.40;;
50681;SDS011;36779;52.168;20.878;2023-03-12T05:31:19;8.00;;;3.30;;
50681;SDS011;36779;52.168;20.878;2023-03-12T05:33:49;7.80;;;3.50;;
50681;SDS011;36779;52.168;20.878;2023-03-12T05:36:20;11.40;;;4.20;;
50681;SDS011;36779;52.168;20.878;2023-03-12T05:38:50;7.50;;;4.00;;
50681;SDS011;36779;52.168;20.878;2023-03-12T05:41:20;5.30;;;2.60;;
50681;SDS011;36779;52.168;20.878;2023-03-12T05:43:51;8.60;;;3.30;;
50681;SDS011;36779;52.168;20.878;2023-03-12T05:46:25;7.20;;;3.20;;
50681;SDS011;36779;52.168;20.878;2023-03-12T05:48:58;7.60;;;3.30;;
50681;SDS011;36779;52.168;20.878;2023-03-12T05:51:28;5.20;;;3.10;;
50681;SDS011;36779;52.168;20.878;2023-03-12T05:53:59;6.20;;;2.70;;
50681;SDS011;36779;52.168;20.878;2023-03-12T05:56:30;5.10;;;3.00;;
50681;SDS011;36779;52.168;20.878;2023-03-12T05:59:03;6.20;;;3.00;;
50681;SDS011;36779;52.168;20.878;2023-03-12T06:01:33;6.00;;;2.70;;
50681;SDS011;36779;52.168;20.878;2023-03-12T06:04:05;10.70;;;3.30;;
50681;SDS011;36779;52.168;20.878;2023-03-12T06:06:35;15.10;;;3.40;;
50681;SDS011;36779;52.168;20.878;2023-03-12T06:09:04;6.60;;;2.90;;
50681;SDS011;36779;52.168;20.878;2023-03-12T06:11:33;5.20;;;2.90;;
50681;SDS011;36779;52.168;20.878;2023-03-12T06:14:03;6.50;;;3.00;;
50681;SDS011;36779;52.168;20.878;2023-03-12T06:16:34;3.70;;;2.20;;
50681;SDS011;36779;52.168;20.878;2023-03-12T06:19:05;6.10;;;3.30;;
50681;SDS011;36779;52.168;20.878;2023-03-12T06:21:34;5.60;;;2.60;;
50681;SDS011;36779;52.168;20.878;2023-03-12T06:24:06;8.00;;;2.80;;
50681;SDS011;36779;52.168;20.878;2023-03-12T06:26:48;6.80;;;2.80;;
50681;SDS011;36779;52.168;20.878;2023-03-12T06:29:20;6.70;;;2.70;;
50681;SDS011;36779;52.168;20.878;2023-03-12T06:31:49;7.00;;;3.30;;
50681;SDS011;36779;52.168;20.878;2023-03-12T06:34:20;13.70;;;4.40;;
50681;SDS011;36779;52.168;20.878;2023-03-12T06:36:50;11.80;;;5.80;;
50681;SDS011;36779;52.168;20.878;2023-03-12T06:39:19;25.00;;;8.30;;
50681;SDS011;36779;52.168;20.878;2023-03-12T06:41:49;21.30;;;6.70;;
50681;SDS011;36779;52.168;20.878;2023-03-12T06:44:18;20.00;;;6.30;;
50681;SDS011;36779;52.168;20.878;2023-03-12T06:46:51;10.60;;;5.40;;
50681;SDS011;36779;52.168;20.878;2023-03-12T06:49:21;10.70;;;4.60;;
50681;SDS011;36779;52.168;20.878;2023-03-12T06:51:51;11.50;;;5.30;;
50681;SDS011;36779;52.168;20.878;2023-03-12T06:54:21;7.40;;;3.80;;
50681;SDS011;36779;52.168;20.878;2023-03-12T06:56:50;14.20;;;5.70;;
50681;SDS011;36779;52.168;20.878;2023-03-12T06:59:19;15.50;;;4.80;;
50681;SDS011;36779;52.168;20.878;2023-03-12T07:01:48;9.20;;;3.80;;
50681;SDS011;36779;52.168;20.878;2023-03-12T07:04:21;9.70;;;4.10;;
50681;SDS011;36779;52.168;20.878;2023-03-12T07:06:51;6.40;;;3.20;;
50681;SDS011;36779;52.168;20.878;2023-03-12T07:09:20;7.60;;;3.90;;
50681;SDS011;36779;52.168;20.878;2023-03-12T07:11:49;7.30;;;3.80;;
50681;SDS011;36779;52.168;20.878;2023-03-12T07:14:18;9.00;;;4.00;;
50681;SDS011;36779;52.168;20.878;2023-03-12T07:16:48;7.60;;;2.80;;
50681;SDS011;36779;52.168;20.878;2023-03-12T07:19:19;8.20;;;3.20;;
50681;SDS011;36779;52.168;20.878;2023-03-12T07:21:48;14.20;;;4.80;;
50681;SDS011;36779;52.168;20.878;2023-03-12T07:24:17;11.10;;;5.20;;
50681;SDS011;36779;52.168;20.878;2023-03-12T07:26:46;10.90;;;5.00;;
50681;SDS011;36779;52.168;20.878;2023-03-12T07:29:17;10.30;;;5.40;;
50681;SDS011;36779;52.168;20.878;2023-03-12T07:31:45;8.50;;;4.80;;
50681;SDS011;36779;52.168;20.878;2023-03-12T07:34:15;10.00;;;4.40;;
50681;SDS011;36779;52.168;20.878;2023-03-12T07:36:44;8.20;;;4.20;;
50681;SDS011;36779;52.168;20.878;2023-03-12T07:39:16;5.70;;;2.50;;
50681;SDS011;36779;52.168;20.878;2023-03-12T07:41:46;8.90;;;3.70;;
50681;SDS011;36779;52.168;20.878;2023-03-12T07:44:15;5.50;;;3.40;;
50681;SDS011;36779;52.168;20.878;2023-03-12T07:46:45;7.40;;;3.00;;
50681;SDS011;36779;52.168;20.878;2023-03-12T07:49:18;6.10;;;3.10;;
50681;SDS011;36779;52.168;20.878;2023-03-12T07:51:48;4.20;;;2.40;;
50681;SDS011;36779;52.168;20.878;2023-03-12T07:54:19;5.90;;;2.80;;
50681;SDS011;36779;52.168;20.878;2023-03-12T07:56:56;5.00;;;2.90;;
50681;SDS011;36779;52.168;20.878;2023-03-12T07:59:26;4.10;;;3.00;;
50681;SDS011;36779;52.168;20.878;2023-03-12T08:01:56;5.70;;;3.00;;
50681;SDS011;36779;52.168;20.878;2023-03-12T08:04:25;5.50;;;3.00;;
50681;SDS011;36779;52.168;20.878;2023-03-12T08:06:54;4.80;;;2.30;;
50681;SDS011;36779;52.168;20.878;2023-03-12T08:09:23;3.90;;;2.30;;
50681;SDS011;36779;52.168;20.878;2023-03-12T08:11:52;5.60;;;2.50;;
50681;SDS011;36779;52.168;20.878;2023-03-12T08:14:24;3.40;;;2.00;;
50681;SDS011;36779;52.168;20.878;2023-03-12T08:16:52;7.20;;;2.50;;
50681;SDS011;36779;52.168;20.878;2023-03-12T08:19:21;5.70;;;2.40;;
50681;SDS011;36779;52.168;20.878;2023-03-12T08:21:50;6.30;;;2.70;;
50681;SDS011;36779;52.168;20.878;2023-03-12T08:24:22;5.80;;;2.70;;
50681;SDS011;36779;52.168;20.878;2023-03-12T08:26:50;4.00;;;2.10;;
50681;SDS011;36779;52.168;20.878;2023-03-12T08:29:19;5.40;;;2.50;;
50681;SDS011;36779;52.168;20.878;2023-03-12T08:31:48;7.50;;;2.80;;
50681;SDS011;36779;52.168;20.878;2023-03-12T08:34:31;3.90;;;1.90;;
50681;SDS011;36779;52.168;20.878;2023-03-12T08:37:03;4.10;;;2.20;;
50681;SDS011;36779;52.168;20.878;2023-03-12T08:39:34;5.40;;;2.70;;
50681;SDS011;36779;52.168;20.878;2023-03-12T08:42:03;6.00;;;2.60;;
50681;SDS011;36779;52.168;20.878;2023-03-12T08:44:34;5.40;;;2.50;;
50681;SDS011;36779;52.168;20.878;2023-03-12T08:47:04;7.90;;;3.40;;
50681;SDS011;36779;52.168;20.878;2023-03-12T08:49:33;6.90;;;2.90;;
50681;SDS011;36779;52.168;20.878;2023-03-12T08:52:02;4.90;;;2.40;;
50681;SDS011;36779;52.168;20.878;2023-03-12T08:54:32;2.90;;;1.70;;
50681;SDS011;36779;52.168;20.878;2023-03-12T08:57:02;6.80;;;2.30;;
50681;SDS011;36779;52.168;20.878;2023-03-12T08:59:31;8.00;;;2.10;;
50681;SDS011;36779;52.168;20.878;2023-03-12T09:02:02;3.60;;;1.80;;
50681;SDS011;36779;52.168;20.878;2023-03-12T09:04:31;5.40;;;1.60;;
50681;SDS011;36779;52.168;20.878;2023-03-12T09:07:00;3.40;;;1.10;;
50681;SDS011;36779;52.168;20.878;2023-03-12T09:09:31;4.60;;;1.70;;
50681;SDS011;36779;52.168;20.878;2023-03-12T09:12:00;2.50;;;0.90;;
50681;SDS011;36779;52.168;20.878;2023-03-12T09:14:32;2.70;;;1.00;;
50681;SDS011;36779;52.168;20.878;2023-03-12T09:17:20;3.90;;;1.10;;
50681;SDS011;36779;52.168;20.878;2023-03-12T09:19:50;4.80;;;0.90;;
50681;SDS011;36779;52.168;20.878;2023-03-12T09:22:19;2.00;;;0.90;;
50681;SDS011;36779;52.168;20.878;2023-03-12T09:24:48;9.30;;;1.30;;
50681;SDS011;36779;52.168;20.878;2023-03-12T09:27:17;3.30;;;1.00;;
50681;SDS011;36779;52.168;20.878;2023-03-12T09:29:46;4.80;;;1.30;;
50681;SDS011;36779;52.168;20.878;2023-03-12T09:32:28;5.30;;;1.60;;
50681;SDS011;36779;52.168;20.878;2023-03-12T09:34:56;4.70;;;1.30;;
50681;SDS011;36779;52.168;20.878;2023-03-12T09:37:25;3.90;;;1.80;;
50681;SDS011;36779;52.168;20.878;2023-03-12T09:39:55;5.20;;;1.90;;
50681;SDS011;36779;52.168;20.878;2023-03-12T09:42:29;4.70;;;2.10;;
50681;SDS011;36779;52.168;20.878;2023-03-12T09:45:04;4.70;;;2.00;;
50681;SDS011;36779;52.168;20.878;2023-03-12T09:47:42;6.70;;;2.90;;
50681;SDS011;36779;52.168;20.878;2023-03-12T09:50:20;5.60;;;2.90;;
50681;SDS011;36779;52.168;20.878;2023-03-12T09:52:54;8.20;;;2.60;;
50681;SDS011;36779;52.168;20.878;2023-03-12T09:55:31;6.30;;;1.80;;
50681;SDS011;36779;52.168;20.878;2023-03-12T09:58:08;4.60;;;2.10;;
50681;SDS011;36779;52.168;20.878;2023-03-12T10:00:39;4.50;;;1.80;;
50681;SDS011;36779;52.168;20.878;2023-03-12T10:03:27;4.20;;;2.00;;
50681;SDS011;36779;52.168;20.878;2023-03-12T10:06:11;6.30;;;1.40;;
50681;SDS011;36779;52.168;20.878;2023-03-12T10:08:47;2.60;;;1.50;;
50681;SDS011;36779;52.168;20.878;2023-03-12T10:11:29;7.70;;;2.00;;
50681;SDS011;36779;52.168;20.878;2023-03-12T10:14:11;9.20;;;2.20;;
50681;SDS011;36779;52.168;20.878;2023-03-12T10:16:56;3.60;;;1.50;;
50681;SDS011;36779;52.168;20.878;2023-03-12T10:19:38;4.40;;;1.50;;
50681;SDS011;36779;52.168;20.878;2023-03-12T10:22:35;7.60;;;1.90;;
50681;SDS011;36779;52.168;20.878;2023-03-12T10:25:21;3.80;;;1.10;;
50681;SDS011;36779;52.168;20.878;2023-03-12T10:27:58;2.10;;;1.00;;
50681;SDS011;36779;52.168;20.878;2023-03-12T10:30:38;7.70;;;1.20;;
50681;SDS011;36779;52.168;20.878;2023-03-12T10:33:14;4.10;;;1.40;;
50681;SDS011;36779;52.168;20.878;2023-03-12T10:35:46;3.30;;;1.20;;
50681;SDS011;36779;52.168;20.878;2023-03-12T10:38:19;2.00;;;1.10;;
50681;SDS011;36779;52.168;20.878;2023-03-12T10:41:09;4.90;;;1.40;;
50681;SDS011;36779;52.168;20.878;2023-03-12T10:43:42;4.20;;;1.30;;
50681;SDS011;36779;52.168;20.878;2023-03-12T10:49:23;5.30;;;1.20;;
50681;SDS011;36779;52.168;20.878;2023-03-12T10:51:59;4.00;;;1.30;;
50681;SDS011;36779;52.168;20.878;2023-03-12T10:54:34;9.60;;;2.20;;
50681;SDS011;36779;52.168;20.878;2023-03-12T10:57:06;7.20;;;2.40;;
50681;SDS011;36779;52.168;20.878;2023-03-12T10:59:36;9.30;;;3.20;;
50681;SDS011;36779;52.168;20.878;2023-03-12T11:05:00;5.90;;;1.40;;
50681;SDS011;36779;52.168;20.878;2023-03-12T11:07:45;5.30;;;1.40;;
50681;SDS011;36779;52.168;20.878;2023-03-12T11:10:21;8.20;;;3.00;;
50681;SDS011;36779;52.168;20.878;2023-03-12T11:12:55;5.80;;;2.20;;
50681;SDS011;36779;52.168;20.878;2023-03-12T11:15:35;6.00;;;2.20;;
50681;SDS011;36779;52.168;20.878;2023-03-12T11:18:24;4.80;;;1.80;;
50681;SDS011;36779;52.168;20.878;2023-03-12T11:21:16;5.00;;;2.30;;
50681;SDS011;36779;52.168;20.878;2023-03-12T11:24:06;7.70;;;2.40;;
50681;SDS011;36779;52.168;20.878;2023-03-12T11:26:42;7.30;;;2.30;;
50681;SDS011;36779;52.168;20.878;2023-03-12T11:29:17;5.10;;;2.30;;
50681;SDS011;36779;52.168;20.878;2023-03-12T11:31:58;8.00;;;3.40;;
50681;SDS011;36779;52.168;20.878;2023-03-12T11:34:31;5.50;;;2.10;;
50681;SDS011;36779;52.168;20.878;2023-03-12T11:37:05;7.10;;;1.70;;
50681;SDS011;36779;52.168;20.878;2023-03-12T11:39:45;9.00;;;1.40;;
50681;SDS011;36779;52.168;20.878;2023-03-12T11:42:27;4.50;;;1.90;;
50681;SDS011;36779;52.168;20.878;2023-03-12T11:45:09;4.70;;;1.40;;
50681;SDS011;36779;52.168;20.878;2023-03-12T11:47:52;2.60;;;0.90;;
50681;SDS011;36779;52.168;20.878;2023-03-12T11:50:35;7.60;;;1.90;;
50681;SDS011;36779;52.168;20.878;2023-03-12T11:53:22;5.30;;;1.60;;
50681;SDS011;36779;52.168;20.878;2023-03-12T11:56:03;4.60;;;1.20;;
50681;SDS011;36779;52.168;20.878;2023-03-12T11:58:48;4.10;;;1.50;;
50681;SDS011;36779;52.168;20.878;2023-03-12T12:01:28;3.80;;;1.10;;
50681;SDS011;36779;52.168;20.878;2023-03-12T12:04:22;4.90;;;1.30;;
50681;SDS011;36779;52.168;20.878;2023-03-12T12:07:08;3.40;;;0.90;;
50681;SDS011;36779;52.168;20.878;2023-03-12T12:09:48;6.10;;;1.50;;
50681;SDS011;36779;52.168;20.878;2023-03-12T12:12:29;7.70;;;1.80;;
50681;SDS011;36779;52.168;20.878;2023-03-12T12:15:12;4.90;;;1.80;;
50681;SDS011;36779;52.168;20.878;2023-03-12T12:17:54;5.20;;;1.60;;
50681;SDS011;36779;52.168;20.878;2023-03-12T12:20:32;5.20;;;1.40;;
50681;SDS011;36779;52.168;20.878;2023-03-12T12:23:17;4.90;;;1.30;;
50681;SDS011;36779;52.168;20.878;2023-03-12T12:25:58;5.90;;;0.80;;
50681;SDS011;36779;52.168;20.878;2023-03-12T12:28:36;3.30;;;1.10;;
50681;SDS011;36779;52.168;20.878;2023-03-12T12:31:33;2.70;;;1.30;;
50681;SDS011;36779;52.168;20.878;2023-03-12T12:37:04;5.40;;;1.60;;
50681;SDS011;36779;52.168;20.878;2023-03-12T12:39:59;4.00;;;1.60;;
50681;SDS011;36779;52.168;20.878;2023-03-12T12:42:40;5.90;;;1.90;;
50681;SDS011;36779;52.168;20.878;2023-03-12T12:45:20;6.00;;;2.90;;
50681;SDS011;36779;52.168;20.878;2023-03-12T12:47:53;4.00;;;1.90;;
50681;SDS011;36779;52.168;20.878;2023-03-12T12:50:26;3.70;;;1.40;;
50681;SDS011;36779;52.168;20.878;2023-03-12T12:53:01;3.50;;;1.10;;
50681;SDS011;36779;52.168;20.878;2023-03-12T12:55:41;6.80;;;1.70;;
50681;SDS011;36779;52.168;20.878;2023-03-12T12:58:18;8.80;;;1.70;;
50681;SDS011;36779;52.168;20.878;2023-03-12T13:00:54;4.40;;;1.80;;
50681;SDS011;36779;52.168;20.878;2023-03-12T13:03:26;6.50;;;2.20;;
50681;SDS011;36779;52.168;20.878;2023-03-12T13:05:57;7.10;;;2.50;;
50681;SDS011;36779;52.168;20.878;2023-03-12T13:08:56;5.60;;;1.70;;
50681;SDS011;36779;52.168;20.878;2023-03-12T13:11:27;3.00;;;1.00;;
50681;SDS011;36779;52.168;20.878;2023-03-12T13:17:06;3.00;;;1.50;;
50681;SDS011;36779;52.168;20.878;2023-03-12T13:19:47;9.00;;;2.00;;
50681;SDS011;36779;52.168;20.878;2023-03-12T13:22:39;4.00;;;0.90;;
50681;SDS011;36779;52.168;20.878;2023-03-12T13:25:27;4.90;;;1.20;;
50681;SDS011;36779;52.168;20.878;2023-03-12T13:37:29;5.70;;;1.80;;
50681;SDS011;36779;52.168;20.878;2023-03-12T13:40:36;6.60;;;1.40;;
50681;SDS011;36779;52.168;20.878;2023-03-12T13:43:30;2.10;;;1.20;;
50681;SDS011;36779;52.168;20.878;2023-03-12T13:49:09;3.00;;;1.00;;
50681;SDS011;36779;52.168;20.878;2023-03-12T13:51:46;5.30;;;1.80;;
50681;SDS011;36779;52.168;20.878;2023-03-12T13:54:24;3.70;;;1.70;;
50681;SDS011;36779;52.168;20.878;2023-03-12T13:56:57;4.20;;;1.60;;
50681;SDS011;36779;52.168;20.878;2023-03-12T13:59:29;3.70;;;1.60;;
50681;SDS011;36779;52.168;20.878;2023-03-12T14:02:02;6.00;;;2.20;;
50681;SDS011;36779;52.168;20.878;2023-03-12T14:04:41;5.90;;;2.80;;
50681;SDS011;36779;52.168;20.878;2023-03-12T14:10:20;4.90;;;1.90;;
50681;SDS011;36779;52.168;20.878;2023-03-12T14:12:57;2.60;;;1.40;;
50681;SDS011;36779;52.168;20.878;2023-03-12T14:15:41;4.70;;;1.40;;
50681;SDS011;36779;52.168;20.878;2023-03-12T14:18:18;6.70;;;1.70;;
50681;SDS011;36779;52.168;20.878;2023-03-12T14:20:51;4.40;;;1.80;;
50681;SDS011;36779;52.168;20.878;2023-03-12T14:23:22;4.40;;;1.90;;
50681;SDS011;36779;52.168;20.878;2023-03-12T14:25:56;3.80;;;1.70;;
50681;SDS011;36779;52.168;20.878;2023-03-12T14:28:31;4.90;;;1.60;;
50681;SDS011;36779;52.168;20.878;2023-03-12T14:31:10;18.90;;;6.90;;
50681;SDS011;36779;52.168;20.878;2023-03-12T14:33:46;9.70;;;2.50;;
50681;SDS011;36779;52.168;20.878;2023-03-12T14:36:22;9.70;;;3.50;;
50681;SDS011;36779;52.168;20.878;2023-03-12T14:38:57;6.00;;;2.80;;
50681;SDS011;36779;52.168;20.878;2023-03-12T14:41:37;7.30;;;2.60;;
50681;SDS011;36779;52.168;20.878;2023-03-12T14:44:19;4.80;;;1.70;;
50681;SDS011;36779;52.168;20.878;2023-03-12T14:46:55;5.80;;;1.80;;
50681;SDS011;36779;52.168;20.878;2023-03-12T14:49:25;4.60;;;1.70;;
50681;SDS011;36779;52.168;20.878;2023-03-12T14:51:54;5.70;;;2.40;;
50681;SDS011;36779;52.168;20.878;2023-03-12T14:54:24;11.70;;;2.60;;
50681;SDS011;36779;52.168;20.878;2023-03-12T14:56:55;7.50;;;3.90;;
50681;SDS011;36779;52.168;20.878;2023-03-12T14:59:24;6.50;;;2.20;;
50681;SDS011;36779;52.168;20.878;2023-03-12T15:01:57;3.60;;;1.40;;
50681;SDS011;36779;52.168;20.878;2023-03-12T15:04:29;5.70;;;2.10;;
50681;SDS011;36779;52.168;20.878;2023-03-12T15:07:03;9.80;;;4.00;;
50681;SDS011;36779;52.168;20.878;2023-03-12T15:09:36;15.00;;;4.10;;
50681;SDS011;36779;52.168;20.878;2023-03-12T15:12:16;7.00;;;2.00;;
50681;SDS011;36779;52.168;20.878;2023-03-12T15:14:49;7.50;;;2.30;;
50681;SDS011;36779;52.168;20.878;2023-03-12T15:17:22;8.30;;;2.90;;
50681;SDS011;36779;52.168;20.878;2023-03-12T15:19:54;3.50;;;1.90;;
50681;SDS011;36779;52.168;20.878;2023-03-12T15:22:24;6.50;;;2.40;;
50681;SDS011;36779;52.168;20.878;2023-03-12T15:24:54;6.00;;;2.90;;
50681;SDS011;36779;52.168;20.878;2023-03-12T15:27:32;7.00;;;2.80;;
50681;SDS011;36779;52.168;20.878;2023-03-12T15:33:06;7.50;;;2.60;;
50681;SDS011;36779;52.168;20.878;2023-03-12T15:35:38;4.20;;;1.80;;
50681;SDS011;36779;52.168;20.878;2023-03-12T15:38:15;6.40;;;2.40;;
50681;SDS011;36779;52.168;20.878;2023-03-12T15:40:49;7.40;;;2.20;;